sensor_id;sensor_type;location;lat;lon;timestamp;P1;durP1;ratioP1;P2;durP2;ratioP2
14704;SDS011;7442;50.840;3.396;2023-08-06T00:01:44;2.00;;;1.27;;
14704;SDS011;7442;50.840;3.396;2023-08-06T00:04:32;1.22;;;1.00;;
14704;SDS011;7442;50.840;3.396;2023-08-06T00:07:18;1.60;;;1.00;;
14704;SDS011;7442;50.840;3.396;2023-08-06T00:10:04;0.95;;;0.90;;
14704;SDS011;7442;50.840;3.396;2023-08-06T00:12:51;0.98;;;0.95;;
14704;SDS011;7442;50.840;3.396;2023-08-06T00:15:38;1.17;;;0.85;;
14704;SDS011;7442;50.840;3.396;2023-08-06T00:18:24;1.47;;;1.02;;
14704;SDS011;7442;50.840;3.396;2023-08-06T00:21:10;1.22;;;0.80;;
14704;SDS011;7442;50.840;3.396;2023-08-06T00:23:57;1.47;;;1.00;;
14704;SDS011;7442;50.840;3.396;2023-08-06T00:26:43;2.52;;;1.20;;
14704;SDS011;7442;50.840;3.396;2023-08-06T00:29:29;2.17;;;1.02;;
14704;SDS011;7442;50.840;3.396;2023-08-06T00:32:15;0.95;;;0.90;;
14704;SDS011;7442;50.840;3.396;2023-08-06T00:35:04;2.45;;;1.12;;
14704;SDS011;7442;50.840;3.396;2023-08-06T00:37:51;1.27;;;1.00;;
14704;SDS011;7442;50.840;3.396;2023-08-06T00:40:37;1.35;;;0.98;;
14704;SDS011;7442;50.840;3.396;2023-08-06T00:43:23;3.05;;;1.00;;
14704;SDS011;7442;50.840;3.396;2023-08-06T00:46:10;1.10;;;1.00;;
14704;SDS011;7442;50.840;3.396;2023-08-06T00:48:57;0.95;;;0.70;;
14704;SDS011;7442;50.840;3.396;2023-08-06T00:51:43;2.00;;;1.10;;
14704;SDS011;7442;50.840;3.396;2023-08-06T00:54:30;1.75;;;1.07;;
14704;SDS011;7442;50.840;3.396;2023-08-06T00:57:17;1.30;;;0.93;;
14704;SDS011;7442;50.840;3.396;2023-08-06T01:00:04;1.12;;;1.00;;
14704;SDS011;7442;50.840;3.396;2023-08-06T01:02:51;1.30;;;1.00;;
14704;SDS011;7442;50.840;3.396;2023-08-06T01:05:38;1.40;;;0.95;;
14704;SDS011;7442;50.840;3.396;2023-08-06T01:14:45;1.20;;;1.10;;
14704;SDS011;7442;50.840;3.396;2023-08-06T01:17:32;1.05;;;0.90;;
14704;SDS011;7442;50.840;3.396;2023-08-06T01:20:20;0.70;;;0.60;;
14704;SDS011;7442;50.840;3.396;2023-08-06T01:23:07;1.42;;;0.80;;
14704;SDS011;7442;50.840;3.396;2023-08-06T01:26:05;1.15;;;0.80;;
14704;SDS011;7442;50.840;3.396;2023-08-06T01:29:11;2.30;;;1.00;;
14704;SDS011;7442;50.840;3.396;2023-08-06T01:32:02;1.07;;;0.98;;
14704;SDS011;7442;50.840;3.396;2023-08-06T01:34:50;1.98;;;0.90;;
14704;SDS011;7442;50.840;3.396;2023-08-06T01:37:37;1.22;;;0.82;;
14704;SDS011;7442;50.840;3.396;2023-08-06T01:40:26;0.98;;;0.72;;
14704;SDS011;7442;50.840;3.396;2023-08-06T01:43:14;0.72;;;0.72;;
14704;SDS011;7442;50.840;3.396;2023-08-06T01:46:00;1.10;;;1.00;;
14704;SDS011;7442;50.840;3.396;2023-08-06T01:48:46;1.12;;;0.70;;
14704;SDS011;7442;50.840;3.396;2023-08-06T01:51:33;0.72;;;0.55;;
14704;SDS011;7442;50.840;3.396;2023-08-06T01:54:18;1.12;;;0.80;;
14704;SDS011;7442;50.840;3.396;2023-08-06T01:57:05;1.05;;;0.85;;
14704;SDS011;7442;50.840;3.396;2023-08-06T01:59:51;0.75;;;0.50;;
14704;SDS011;7442;50.840;3.396;2023-08-06T02:02:37;1.00;;;0.90;;
14704;SDS011;7442;50.840;3.396;2023-08-06T02:05:25;1.37;;;0.82;;
14704;SDS011;7442;50.840;3.396;2023-08-06T02:08:11;1.57;;;0.82;;
14704;SDS011;7442;50.840;3.396;2023-08-06T02:10:57;1.27;;;0.93;;
14704;SDS011;7442;50.840;3.396;2023-08-06T02:13:43;1.62;;;0.70;;
14704;SDS011;7442;50.840;3.396;2023-08-06T02:16:30;1.55;;;0.90;;
14704;SDS011;7442;50.840;3.396;2023-08-06T02:19:17;1.70;;;0.90;;
14704;SDS011;7442;50.840;3.396;2023-08-06T02:22:03;1.17;;;0.90;;
14704;SDS011;7442;50.840;3.396;2023-08-06T02:24:49;1.10;;;0.80;;
14704;SDS011;7442;50.840;3.396;2023-08-06T02:27:35;2.08;;;1.10;;
14704;SDS011;7442;50.840;3.396;2023-08-06T02:30:23;1.40;;;0.80;;
14704;SDS011;7442;50.840;3.396;2023-08-06T02:33:09;1.45;;;1.00;;
14704;SDS011;7442;50.840;3.396;2023-08-06T02:35:58;1.00;;;0.70;;
14704;SDS011;7442;50.840;3.396;2023-08-06T02:38:46;0.88;;;0.70;;
14704;SDS011;7442;50.840;3.396;2023-08-06T02:41:32;0.93;;;0.82;;
14704;SDS011;7442;50.840;3.396;2023-08-06T02:44:19;1.72;;;1.07;;
14704;SDS011;7442;50.840;3.396;2023-08-06T02:47:05;1.72;;;0.82;;
14704;SDS011;7442;50.840;3.396;2023-08-06T02:49:51;1.95;;;0.80;;
14704;SDS011;7442;50.840;3.396;2023-08-06T02:52:39;1.40;;;0.90;;
14704;SDS011;7442;50.840;3.396;2023-08-06T02:55:25;1.55;;;1.00;;
14704;SDS011;7442;50.840;3.396;2023-08-06T02:58:11;1.27;;;0.90;;
14704;SDS011;7442;50.840;3.396;2023-08-06T03:01:01;1.98;;;0.78;;
14704;SDS011;7442;50.840;3.396;2023-08-06T03:03:50;1.60;;;0.90;;
14704;SDS011;7442;50.840;3.396;2023-08-06T03:06:36;0.75;;;0.75;;
14704;SDS011;7442;50.840;3.396;2023-08-06T03:09:23;1.02;;;0.80;;
14704;SDS011;7442;50.840;3.396;2023-08-06T03:12:09;1.47;;;0.90;;
14704;SDS011;7442;50.840;3.396;2023-08-06T03:14:55;0.78;;;0.60;;
14704;SDS011;7442;50.840;3.396;2023-08-06T03:17:41;2.60;;;1.17;;
14704;SDS011;7442;50.840;3.396;2023-08-06T03:20:29;1.02;;;0.78;;
14704;SDS011;7442;50.840;3.396;2023-08-06T03:23:15;1.47;;;1.00;;
14704;SDS011;7442;50.840;3.396;2023-08-06T03:26:04;0.95;;;0.95;;
14704;SDS011;7442;50.840;3.396;2023-08-06T03:28:51;1.77;;;1.00;;
14704;SDS011;7442;50.840;3.396;2023-08-06T03:31:38;2.90;;;1.00;;
14704;SDS011;7442;50.840;3.396;2023-08-06T03:34:24;1.22;;;1.10;;
14704;SDS011;7442;50.840;3.396;2023-08-06T03:37:10;1.70;;;0.98;;
14704;SDS011;7442;50.840;3.396;2023-08-06T03:39:57;2.12;;;1.10;;
14704;SDS011;7442;50.840;3.396;2023-08-06T03:42:43;2.83;;;1.20;;
14704;SDS011;7442;50.840;3.396;2023-08-06T03:45:29;1.20;;;1.10;;
14704;SDS011;7442;50.840;3.396;2023-08-06T03:48:15;3.15;;;1.45;;
14704;SDS011;7442;50.840;3.396;2023-08-06T03:51:01;1.52;;;1.00;;
14704;SDS011;7442;50.840;3.396;2023-08-06T03:53:48;2.52;;;1.12;;
14704;SDS011;7442;50.840;3.396;2023-08-06T03:56:34;1.67;;;1.00;;
14704;SDS011;7442;50.840;3.396;2023-08-06T03:59:20;3.30;;;1.10;;
14704;SDS011;7442;50.840;3.396;2023-08-06T04:02:06;4.87;;;1.10;;
14704;SDS011;7442;50.840;3.396;2023-08-06T04:04:52;2.00;;;1.40;;
14704;SDS011;7442;50.840;3.396;2023-08-06T04:07:38;2.45;;;0.98;;
14704;SDS011;7442;50.840;3.396;2023-08-06T04:10:24;2.10;;;1.27;;
14704;SDS011;7442;50.840;3.396;2023-08-06T04:13:11;2.58;;;1.20;;
14704;SDS011;7442;50.840;3.396;2023-08-06T04:16:01;1.30;;;1.05;;
14704;SDS011;7442;50.840;3.396;2023-08-06T04:18:47;1.72;;;1.20;;
14704;SDS011;7442;50.840;3.396;2023-08-06T04:21:33;2.30;;;1.30;;
14704;SDS011;7442;50.840;3.396;2023-08-06T04:24:20;2.65;;;1.37;;
14704;SDS011;7442;50.840;3.396;2023-08-06T04:27:06;1.80;;;0.80;;
14704;SDS011;7442;50.840;3.396;2023-08-06T04:29:53;2.62;;;1.50;;
14704;SDS011;7442;50.840;3.396;2023-08-06T04:32:39;1.85;;;1.30;;
14704;SDS011;7442;50.840;3.396;2023-08-06T04:35:25;1.00;;;0.93;;
14704;SDS011;7442;50.840;3.396;2023-08-06T04:38:12;1.45;;;1.22;;
14704;SDS011;7442;50.840;3.396;2023-08-06T04:40:58;2.60;;;1.40;;
14704;SDS011;7442;50.840;3.396;2023-08-06T04:43:44;1.42;;;1.22;;
14704;SDS011;7442;50.840;3.396;2023-08-06T04:46:32;1.60;;;1.30;;
14704;SDS011;7442;50.840;3.396;2023-08-06T04:49:24;1.57;;;1.30;;
14704;SDS011;7442;50.840;3.396;2023-08-06T04:52:06;2.62;;;1.40;;
14704;SDS011;7442;50.840;3.396;2023-08-06T04:54:54;3.58;;;1.47;;
14704;SDS011;7442;50.840;3.396;2023-08-06T04:57:41;2.85;;;1.52;;
14704;SDS011;7442;50.840;3.396;2023-08-06T05:00:27;2.47;;;1.50;;
14704;SDS011;7442;50.840;3.396;2023-08-06T05:03:14;2.65;;;1.52;;
14704;SDS011;7442;50.840;3.396;2023-08-06T05:06:00;2.27;;;1.40;;
14704;SDS011;7442;50.840;3.396;2023-08-06T05:08:46;2.83;;;1.55;;
14704;SDS011;7442;50.840;3.396;2023-08-06T05:11:33;2.42;;;1.62;;
14704;SDS011;7442;50.840;3.396;2023-08-06T05:14:20;1.90;;;1.30;;
14704;SDS011;7442;50.840;3.396;2023-08-06T05:17:07;1.65;;;1.55;;
14704;SDS011;7442;50.840;3.396;2023-08-06T05:19:53;2.50;;;1.40;;
14704;SDS011;7442;50.840;3.396;2023-08-06T05:22:39;2.50;;;1.62;;
14704;SDS011;7442;50.840;3.396;2023-08-06T05:25:26;3.08;;;1.87;;
14704;SDS011;7442;50.840;3.396;2023-08-06T05:28:12;1.70;;;1.60;;
14704;SDS011;7442;50.840;3.396;2023-08-06T05:30:58;2.80;;;1.60;;
14704;SDS011;7442;50.840;3.396;2023-08-06T05:33:48;1.75;;;1.55;;
14704;SDS011;7442;50.840;3.396;2023-08-06T05:36:34;2.40;;;1.50;;
14704;SDS011;7442;50.840;3.396;2023-08-06T05:39:20;2.15;;;1.45;;
14704;SDS011;7442;50.840;3.396;2023-08-06T05:42:07;3.55;;;1.60;;
14704;SDS011;7442;50.840;3.396;2023-08-06T05:44:53;3.42;;;1.82;;
14704;SDS011;7442;50.840;3.396;2023-08-06T05:47:40;3.92;;;1.67;;
14704;SDS011;7442;50.840;3.396;2023-08-06T05:50:26;2.50;;;1.60;;
14704;SDS011;7442;50.840;3.396;2023-08-06T05:53:12;5.25;;;1.55;;
14704;SDS011;7442;50.840;3.396;2023-08-06T05:55:59;2.87;;;1.57;;
14704;SDS011;7442;50.840;3.396;2023-08-06T05:58:46;4.00;;;1.80;;
14704;SDS011;7442;50.840;3.396;2023-08-06T06:01:33;2.85;;;1.70;;
14704;SDS011;7442;50.840;3.396;2023-08-06T06:04:20;3.17;;;1.62;;
14704;SDS011;7442;50.840;3.396;2023-08-06T06:07:06;3.50;;;1.87;;
14704;SDS011;7442;50.840;3.396;2023-08-06T06:09:53;3.80;;;1.62;;
14704;SDS011;7442;50.840;3.396;2023-08-06T06:12:40;2.08;;;1.35;;
14704;SDS011;7442;50.840;3.396;2023-08-06T06:15:26;2.58;;;1.60;;
14704;SDS011;7442;50.840;3.396;2023-08-06T06:18:13;2.62;;;1.60;;
14704;SDS011;7442;50.840;3.396;2023-08-06T06:20:59;1.92;;;1.40;;
14704;SDS011;7442;50.840;3.396;2023-08-06T06:23:46;2.72;;;1.45;;
14704;SDS011;7442;50.840;3.396;2023-08-06T06:26:32;3.27;;;1.60;;
14704;SDS011;7442;50.840;3.396;2023-08-06T06:29:19;1.45;;;1.35;;
14704;SDS011;7442;50.840;3.396;2023-08-06T06:32:05;2.00;;;1.45;;
14704;SDS011;7442;50.840;3.396;2023-08-06T06:34:52;2.40;;;1.55;;
14704;SDS011;7442;50.840;3.396;2023-08-06T06:37:39;2.87;;;1.60;;
14704;SDS011;7442;50.840;3.396;2023-08-06T06:40:26;3.20;;;1.60;;
14704;SDS011;7442;50.840;3.396;2023-08-06T06:43:12;1.90;;;1.42;;
14704;SDS011;7442;50.840;3.396;2023-08-06T06:46:00;2.33;;;1.60;;
14704;SDS011;7442;50.840;3.396;2023-08-06T06:48:47;1.50;;;1.40;;
14704;SDS011;7442;50.840;3.396;2023-08-06T06:51:33;2.65;;;1.70;;
14704;SDS011;7442;50.840;3.396;2023-08-06T06:54:51;3.00;;;1.60;;
14704;SDS011;7442;50.840;3.396;2023-08-06T06:57:37;1.65;;;1.55;;
14704;SDS011;7442;50.840;3.396;2023-08-06T07:00:23;3.62;;;1.65;;
14704;SDS011;7442;50.840;3.396;2023-08-06T07:03:10;1.67;;;1.40;;
14704;SDS011;7442;50.840;3.396;2023-08-06T07:05:57;2.08;;;1.40;;
14704;SDS011;7442;50.840;3.396;2023-08-06T07:08:44;2.37;;;1.50;;
14704;SDS011;7442;50.840;3.396;2023-08-06T07:11:31;2.30;;;1.60;;
14704;SDS011;7442;50.840;3.396;2023-08-06T07:14:17;3.42;;;1.82;;
14704;SDS011;7442;50.840;3.396;2023-08-06T07:17:03;2.22;;;1.52;;
14704;SDS011;7442;50.840;3.396;2023-08-06T07:19:50;3.58;;;1.50;;
14704;SDS011;7442;50.840;3.396;2023-08-06T07:22:37;2.22;;;1.57;;
14704;SDS011;7442;50.840;3.396;2023-08-06T07:25:23;2.75;;;1.30;;
14704;SDS011;7442;50.840;3.396;2023-08-06T07:28:10;2.85;;;1.80;;
14704;SDS011;7442;50.840;3.396;2023-08-06T07:30:56;2.45;;;1.30;;
14704;SDS011;7442;50.840;3.396;2023-08-06T07:33:43;3.25;;;1.57;;
14704;SDS011;7442;50.840;3.396;2023-08-06T07:36:30;4.03;;;1.57;;
14704;SDS011;7442;50.840;3.396;2023-08-06T07:39:16;2.25;;;1.47;;
14704;SDS011;7442;50.840;3.396;2023-08-06T07:42:03;2.17;;;1.50;;
14704;SDS011;7442;50.840;3.396;2023-08-06T07:44:52;2.17;;;1.52;;
14704;SDS011;7442;50.840;3.396;2023-08-06T07:47:42;3.05;;;1.60;;
14704;SDS011;7442;50.840;3.396;2023-08-06T07:50:30;2.35;;;1.37;;
14704;SDS011;7442;50.840;3.396;2023-08-06T07:53:16;2.10;;;1.37;;
14704;SDS011;7442;50.840;3.396;2023-08-06T07:56:03;2.62;;;1.80;;
14704;SDS011;7442;50.840;3.396;2023-08-06T07:58:49;1.70;;;1.40;;
14704;SDS011;7442;50.840;3.396;2023-08-06T08:01:35;3.25;;;1.35;;
14704;SDS011;7442;50.840;3.396;2023-08-06T08:04:22;2.52;;;1.40;;
14704;SDS011;7442;50.840;3.396;2023-08-06T08:07:09;3.33;;;1.50;;
14704;SDS011;7442;50.840;3.396;2023-08-06T08:09:56;1.95;;;1.30;;
14704;SDS011;7442;50.840;3.396;2023-08-06T08:12:43;3.02;;;1.30;;
14704;SDS011;7442;50.840;3.396;2023-08-06T08:15:31;4.83;;;1.60;;
14704;SDS011;7442;50.840;3.396;2023-08-06T08:18:20;2.42;;;1.55;;
14704;SDS011;7442;50.840;3.396;2023-08-06T08:21:06;2.02;;;1.45;;
14704;SDS011;7442;50.840;3.396;2023-08-06T08:23:53;2.62;;;1.65;;
14704;SDS011;7442;50.840;3.396;2023-08-06T08:26:39;3.47;;;1.50;;
14704;SDS011;7442;50.840;3.396;2023-08-06T08:29:26;2.52;;;1.22;;
14704;SDS011;7442;50.840;3.396;2023-08-06T08:32:12;2.50;;;1.32;;
14704;SDS011;7442;50.840;3.396;2023-08-06T08:35:00;1.85;;;1.20;;
14704;SDS011;7442;50.840;3.396;2023-08-06T08:37:46;2.83;;;1.30;;
14704;SDS011;7442;50.840;3.396;2023-08-06T08:40:33;3.17;;;1.60;;
14704;SDS011;7442;50.840;3.396;2023-08-06T08:43:23;2.30;;;1.22;;
14704;SDS011;7442;50.840;3.396;2023-08-06T08:46:10;3.85;;;1.70;;
14704;SDS011;7442;50.840;3.396;2023-08-06T08:48:58;3.08;;;1.32;;
14704;SDS011;7442;50.840;3.396;2023-08-06T08:51:45;2.80;;;1.55;;
14704;SDS011;7442;50.840;3.396;2023-08-06T08:54:33;2.58;;;1.62;;
14704;SDS011;7442;50.840;3.396;2023-08-06T08:57:20;1.85;;;1.40;;
14704;SDS011;7442;50.840;3.396;2023-08-06T09:00:07;1.72;;;1.30;;
14704;SDS011;7442;50.840;3.396;2023-08-06T09:02:53;3.65;;;1.75;;
14704;SDS011;7442;50.840;3.396;2023-08-06T09:05:41;2.30;;;1.45;;
14704;SDS011;7442;50.840;3.396;2023-08-06T09:08:39;2.98;;;1.30;;
14704;SDS011;7442;50.840;3.396;2023-08-06T09:11:22;1.82;;;1.25;;
14704;SDS011;7442;50.840;3.396;2023-08-06T09:14:09;2.25;;;1.40;;
14704;SDS011;7442;50.840;3.396;2023-08-06T09:16:56;2.15;;;1.30;;
14704;SDS011;7442;50.840;3.396;2023-08-06T09:19:42;2.08;;;1.30;;
14704;SDS011;7442;50.840;3.396;2023-08-06T09:22:34;3.75;;;1.62;;
14704;SDS011;7442;50.840;3.396;2023-08-06T09:25:21;2.75;;;1.40;;
14704;SDS011;7442;50.840;3.396;2023-08-06T09:28:09;3.17;;;1.45;;
14704;SDS011;7442;50.840;3.396;2023-08-06T09:30:56;3.02;;;1.20;;
14704;SDS011;7442;50.840;3.396;2023-08-06T09:33:46;2.00;;;1.20;;
14704;SDS011;7442;50.840;3.396;2023-08-06T09:36:33;2.67;;;1.50;;
14704;SDS011;7442;50.840;3.396;2023-08-06T09:39:20;2.92;;;1.50;;
14704;SDS011;7442;50.840;3.396;2023-08-06T09:42:08;2.22;;;1.55;;
14704;SDS011;7442;50.840;3.396;2023-08-06T09:44:55;2.30;;;1.40;;
14704;SDS011;7442;50.840;3.396;2023-08-06T09:47:44;2.40;;;1.17;;
14704;SDS011;7442;50.840;3.396;2023-08-06T09:50:32;3.22;;;1.47;;
14704;SDS011;7442;50.840;3.396;2023-08-06T09:53:21;2.17;;;1.50;;
14704;SDS011;7442;50.840;3.396;2023-08-06T09:56:08;2.05;;;1.50;;
14704;SDS011;7442;50.840;3.396;2023-08-06T09:58:57;3.10;;;1.40;;
14704;SDS011;7442;50.840;3.396;2023-08-06T10:01:45;2.30;;;1.30;;
14704;SDS011;7442;50.840;3.396;2023-08-06T10:04:31;1.80;;;1.30;;
14704;SDS011;7442;50.840;3.396;2023-08-06T10:07:18;2.30;;;1.17;;
14704;SDS011;7442;50.840;3.396;2023-08-06T10:10:06;3.72;;;1.60;;
14704;SDS011;7442;50.840;3.396;2023-08-06T10:12:54;2.77;;;1.30;;
14704;SDS011;7442;50.840;3.396;2023-08-06T10:15:42;2.77;;;1.55;;
14704;SDS011;7442;50.840;3.396;2023-08-06T10:18:29;2.20;;;1.52;;
14704;SDS011;7442;50.840;3.396;2023-08-06T10:21:17;3.08;;;1.60;;
14704;SDS011;7442;50.840;3.396;2023-08-06T10:24:07;2.02;;;1.25;;
14704;SDS011;7442;50.840;3.396;2023-08-06T10:26:56;2.65;;;1.52;;
14704;SDS011;7442;50.840;3.396;2023-08-06T10:29:44;4.03;;;1.62;;
14704;SDS011;7442;50.840;3.396;2023-08-06T10:32:45;2.37;;;1.30;;
14704;SDS011;7442;50.840;3.396;2023-08-06T10:35:46;3.08;;;1.50;;
14704;SDS011;7442;50.840;3.396;2023-08-06T10:38:34;1.42;;;1.10;;
14704;SDS011;7442;50.840;3.396;2023-08-06T10:41:23;2.10;;;1.25;;
14704;SDS011;7442;50.840;3.396;2023-08-06T10:44:16;2.55;;;1.62;;
14704;SDS011;7442;50.840;3.396;2023-08-06T10:50:16;2.98;;;1.42;;
14704;SDS011;7442;50.840;3.396;2023-08-06T10:53:03;3.15;;;1.50;;
14704;SDS011;7442;50.840;3.396;2023-08-06T10:55:51;3.00;;;1.50;;
14704;SDS011;7442;50.840;3.396;2023-08-06T10:58:37;4.00;;;1.55;;
14704;SDS011;7442;50.840;3.396;2023-08-06T11:01:28;2.58;;;1.55;;
14704;SDS011;7442;50.840;3.396;2023-08-06T11:04:14;3.05;;;1.50;;
14704;SDS011;7442;50.840;3.396;2023-08-06T11:07:02;2.20;;;1.42;;
14704;SDS011;7442;50.840;3.396;2023-08-06T11:09:50;2.15;;;1.32;;
14704;SDS011;7442;50.840;3.396;2023-08-06T11:12:37;5.25;;;1.57;;
14704;SDS011;7442;50.840;3.396;2023-08-06T11:15:24;2.87;;;1.50;;
14704;SDS011;7442;50.840;3.396;2023-08-06T11:18:11;2.83;;;1.52;;
14704;SDS011;7442;50.840;3.396;2023-08-06T11:21:01;2.85;;;1.50;;
14704;SDS011;7442;50.840;3.396;2023-08-06T11:23:48;3.40;;;1.80;;
14704;SDS011;7442;50.840;3.396;2023-08-06T11:26:34;3.62;;;1.60;;
14704;SDS011;7442;50.840;3.396;2023-08-06T11:29:24;2.02;;;1.40;;
14704;SDS011;7442;50.840;3.396;2023-08-06T11:32:13;3.20;;;1.55;;
14704;SDS011;7442;50.840;3.396;2023-08-06T11:35:09;2.02;;;1.30;;
14704;SDS011;7442;50.840;3.396;2023-08-06T11:37:56;2.70;;;1.47;;
14704;SDS011;7442;50.840;3.396;2023-08-06T11:40:45;2.55;;;1.60;;
14704;SDS011;7442;50.840;3.396;2023-08-06T11:43:33;2.72;;;1.60;;
14704;SDS011;7442;50.840;3.396;2023-08-06T11:46:20;2.55;;;1.40;;
14704;SDS011;7442;50.840;3.396;2023-08-06T11:49:08;2.22;;;1.27;;
14704;SDS011;7442;50.840;3.396;2023-08-06T11:51:54;2.22;;;1.47;;
14704;SDS011;7442;50.840;3.396;2023-08-06T11:54:41;2.30;;;1.30;;
14704;SDS011;7442;50.840;3.396;2023-08-06T11:57:30;2.08;;;1.40;;
14704;SDS011;7442;50.840;3.396;2023-08-06T12:00:17;4.35;;;1.80;;
14704;SDS011;7442;50.840;3.396;2023-08-06T12:03:05;2.87;;;1.75;;
14704;SDS011;7442;50.840;3.396;2023-08-06T12:05:53;3.35;;;1.57;;
14704;SDS011;7442;50.840;3.396;2023-08-06T12:08:40;5.05;;;1.50;;
14704;SDS011;7442;50.840;3.396;2023-08-06T12:11:27;2.60;;;1.40;;
14704;SDS011;7442;50.840;3.396;2023-08-06T12:14:15;3.98;;;1.60;;
14704;SDS011;7442;50.840;3.396;2023-08-06T12:17:01;1.50;;;1.10;;
14704;SDS011;7442;50.840;3.396;2023-08-06T12:19:47;2.75;;;1.32;;
14704;SDS011;7442;50.840;3.396;2023-08-06T12:22:34;3.90;;;1.57;;
14704;SDS011;7442;50.840;3.396;2023-08-06T12:25:24;2.50;;;1.65;;
14704;SDS011;7442;50.840;3.396;2023-08-06T12:28:11;2.90;;;1.50;;
14704;SDS011;7442;50.840;3.396;2023-08-06T12:30:57;2.65;;;1.40;;
14704;SDS011;7442;50.840;3.396;2023-08-06T12:33:43;2.80;;;1.40;;
14704;SDS011;7442;50.840;3.396;2023-08-06T12:36:30;2.98;;;1.37;;
14704;SDS011;7442;50.840;3.396;2023-08-06T12:39:16;2.50;;;1.52;;
14704;SDS011;7442;50.840;3.396;2023-08-06T12:42:02;7.15;;;1.60;;
14704;SDS011;7442;50.840;3.396;2023-08-06T12:44:50;2.58;;;1.40;;
14704;SDS011;7442;50.840;3.396;2023-08-06T12:47:37;1.60;;;1.20;;
14704;SDS011;7442;50.840;3.396;2023-08-06T12:50:23;1.40;;;1.15;;
14704;SDS011;7442;50.840;3.396;2023-08-06T12:53:10;2.72;;;1.57;;
14704;SDS011;7442;50.840;3.396;2023-08-06T12:56:01;3.95;;;1.65;;
14704;SDS011;7442;50.840;3.396;2023-08-06T12:58:47;3.27;;;1.60;;
14704;SDS011;7442;50.840;3.396;2023-08-06T13:01:39;2.02;;;1.40;;
14704;SDS011;7442;50.840;3.396;2023-08-06T13:04:25;3.12;;;1.50;;
14704;SDS011;7442;50.840;3.396;2023-08-06T13:07:12;3.02;;;1.47;;
14704;SDS011;7442;50.840;3.396;2023-08-06T13:09:58;3.37;;;1.50;;
14704;SDS011;7442;50.840;3.396;2023-08-06T13:12:45;2.50;;;1.60;;
14704;SDS011;7442;50.840;3.396;2023-08-06T13:15:31;3.17;;;1.60;;
14704;SDS011;7442;50.840;3.396;2023-08-06T13:18:19;2.20;;;1.40;;
14704;SDS011;7442;50.840;3.396;2023-08-06T13:21:05;3.55;;;1.50;;
14704;SDS011;7442;50.840;3.396;2023-08-06T13:23:52;3.10;;;1.67;;
14704;SDS011;7442;50.840;3.396;2023-08-06T13:26:39;1.45;;;1.10;;
14704;SDS011;7442;50.840;3.396;2023-08-06T13:29:27;3.08;;;1.60;;
14704;SDS011;7442;50.840;3.396;2023-08-06T13:32:14;2.20;;;1.30;;
14704;SDS011;7442;50.840;3.396;2023-08-06T13:35:00;2.92;;;1.30;;
14704;SDS011;7442;50.840;3.396;2023-08-06T13:37:46;2.72;;;1.47;;
14704;SDS011;7442;50.840;3.396;2023-08-06T13:40:33;2.40;;;1.50;;
14704;SDS011;7442;50.840;3.396;2023-08-06T13:43:20;2.92;;;1.45;;
14704;SDS011;7442;50.840;3.396;2023-08-06T13:46:06;2.30;;;1.50;;
14704;SDS011;7442;50.840;3.396;2023-08-06T13:48:54;4.08;;;1.50;;
14704;SDS011;7442;50.840;3.396;2023-08-06T13:51:40;2.25;;;1.30;;
14704;SDS011;7442;50.840;3.396;2023-08-06T13:54:26;2.47;;;1.47;;
14704;SDS011;7442;50.840;3.396;2023-08-06T13:57:12;4.78;;;1.98;;
14704;SDS011;7442;50.840;3.396;2023-08-06T13:59:59;1.92;;;1.40;;
14704;SDS011;7442;50.840;3.396;2023-08-06T14:02:45;2.72;;;1.27;;
14704;SDS011;7442;50.840;3.396;2023-08-06T14:05:31;2.60;;;1.42;;
14704;SDS011;7442;50.840;3.396;2023-08-06T14:08:18;2.08;;;1.57;;
14704;SDS011;7442;50.840;3.396;2023-08-06T14:11:07;2.27;;;1.37;;
14704;SDS011;7442;50.840;3.396;2023-08-06T14:13:55;2.02;;;1.40;;
14704;SDS011;7442;50.840;3.396;2023-08-06T14:16:42;2.77;;;1.22;;
14704;SDS011;7442;50.840;3.396;2023-08-06T14:19:29;2.05;;;1.40;;
14704;SDS011;7442;50.840;3.396;2023-08-06T14:22:15;2.12;;;1.20;;
14704;SDS011;7442;50.840;3.396;2023-08-06T14:25:01;2.75;;;1.35;;
14704;SDS011;7442;50.840;3.396;2023-08-06T14:27:48;2.45;;;1.37;;
14704;SDS011;7442;50.840;3.396;2023-08-06T14:30:34;2.42;;;1.20;;
14704;SDS011;7442;50.840;3.396;2023-08-06T14:33:21;2.10;;;1.60;;
14704;SDS011;7442;50.840;3.396;2023-08-06T14:36:08;2.47;;;1.60;;
14704;SDS011;7442;50.840;3.396;2023-08-06T14:38:54;3.95;;;1.60;;
14704;SDS011;7442;50.840;3.396;2023-08-06T14:41:42;2.83;;;1.72;;
14704;SDS011;7442;50.840;3.396;2023-08-06T14:44:29;2.00;;;1.32;;
14704;SDS011;7442;50.840;3.396;2023-08-06T14:47:15;2.02;;;1.42;;
14704;SDS011;7442;50.840;3.396;2023-08-06T14:50:01;2.87;;;1.60;;
14704;SDS011;7442;50.840;3.396;2023-08-06T14:52:49;2.47;;;1.47;;
14704;SDS011;7442;50.840;3.396;2023-08-06T14:55:35;2.20;;;1.32;;
14704;SDS011;7442;50.840;3.396;2023-08-06T14:58:22;3.25;;;1.45;;
14704;SDS011;7442;50.840;3.396;2023-08-06T15:01:08;2.45;;;1.30;;
14704;SDS011;7442;50.840;3.396;2023-08-06T15:03:54;2.17;;;1.15;;
14704;SDS011;7442;50.840;3.396;2023-08-06T15:06:41;2.95;;;1.67;;
14704;SDS011;7442;50.840;3.396;2023-08-06T15:09:27;2.25;;;1.52;;
14704;SDS011;7442;50.840;3.396;2023-08-06T15:12:14;3.22;;;1.40;;
14704;SDS011;7442;50.840;3.396;2023-08-06T15:15:02;3.08;;;1.52;;
14704;SDS011;7442;50.840;3.396;2023-08-06T15:17:49;2.75;;;1.30;;
14704;SDS011;7442;50.840;3.396;2023-08-06T15:20:37;2.17;;;1.40;;
14704;SDS011;7442;50.840;3.396;2023-08-06T15:23:24;1.87;;;1.10;;
14704;SDS011;7442;50.840;3.396;2023-08-06T15:26:10;2.15;;;1.60;;
14704;SDS011;7442;50.840;3.396;2023-08-06T15:28:57;2.27;;;1.42;;
14704;SDS011;7442;50.840;3.396;2023-08-06T15:31:46;2.45;;;1.30;;
14704;SDS011;7442;50.840;3.396;2023-08-06T15:34:32;1.70;;;1.40;;
14704;SDS011;7442;50.840;3.396;2023-08-06T15:37:18;2.00;;;1.32;;
14704;SDS011;7442;50.840;3.396;2023-08-06T15:40:05;2.15;;;1.50;;
14704;SDS011;7442;50.840;3.396;2023-08-06T15:42:53;1.80;;;1.55;;
14704;SDS011;7442;50.840;3.396;2023-08-06T15:45:39;2.70;;;1.45;;
14704;SDS011;7442;50.840;3.396;2023-08-06T15:48:26;1.75;;;1.05;;
14704;SDS011;7442;50.840;3.396;2023-08-06T15:51:12;2.58;;;1.20;;
14704;SDS011;7442;50.840;3.396;2023-08-06T15:53:59;1.87;;;1.30;;
14704;SDS011;7442;50.840;3.396;2023-08-06T15:56:46;1.95;;;1.30;;
14704;SDS011;7442;50.840;3.396;2023-08-06T15:59:32;2.33;;;1.50;;
14704;SDS011;7442;50.840;3.396;2023-08-06T16:02:19;1.90;;;1.40;;
14704;SDS011;7442;50.840;3.396;2023-08-06T16:05:05;1.40;;;1.17;;
14704;SDS011;7442;50.840;3.396;2023-08-06T16:07:52;2.02;;;1.25;;
14704;SDS011;7442;50.840;3.396;2023-08-06T16:10:39;1.30;;;1.00;;
14704;SDS011;7442;50.840;3.396;2023-08-06T16:13:28;1.60;;;1.07;;
14704;SDS011;7442;50.840;3.396;2023-08-06T16:16:17;2.12;;;1.27;;
14704;SDS011;7442;50.840;3.396;2023-08-06T16:19:03;2.10;;;1.42;;
14704;SDS011;7442;50.840;3.396;2023-08-06T16:21:49;3.00;;;1.40;;
14704;SDS011;7442;50.840;3.396;2023-08-06T16:24:36;2.42;;;1.52;;
14704;SDS011;7442;50.840;3.396;2023-08-06T16:27:22;2.87;;;1.55;;
14704;SDS011;7442;50.840;3.396;2023-08-06T16:30:09;1.40;;;1.10;;
14704;SDS011;7442;50.840;3.396;2023-08-06T16:32:56;1.17;;;1.05;;
14704;SDS011;7442;50.840;3.396;2023-08-06T16:35:42;1.90;;;1.42;;
14704;SDS011;7442;50.840;3.396;2023-08-06T16:38:30;1.98;;;1.17;;
14704;SDS011;7442;50.840;3.396;2023-08-06T16:41:17;3.30;;;1.27;;
14704;SDS011;7442;50.840;3.396;2023-08-06T16:44:04;1.72;;;1.15;;
14704;SDS011;7442;50.840;3.396;2023-08-06T16:46:52;4.08;;;1.25;;
14704;SDS011;7442;50.840;3.396;2023-08-06T16:49:38;2.60;;;1.37;;
14704;SDS011;7442;50.840;3.396;2023-08-06T16:52:25;3.05;;;1.40;;
14704;SDS011;7442;50.840;3.396;2023-08-06T16:55:13;3.60;;;1.70;;
14704;SDS011;7442;50.840;3.396;2023-08-06T16:58:02;2.92;;;1.40;;
14704;SDS011;7442;50.840;3.396;2023-08-06T17:00:48;4.62;;;1.72;;
14704;SDS011;7442;50.840;3.396;2023-08-06T17:03:35;4.60;;;1.80;;
14704;SDS011;7442;50.840;3.396;2023-08-06T17:06:22;6.00;;;1.60;;
14704;SDS011;7442;50.840;3.396;2023-08-06T17:09:09;7.33;;;1.77;;
14704;SDS011;7442;50.840;3.396;2023-08-06T17:11:59;4.85;;;1.60;;